Terminal Aerodrome Forecast
Issued by NWS

Home | Current Version | Previous Version | Text Only | Print | Product List | Glossary On
Versions: 1 2 3 4 5 6 7 8 9 10 11 12 13 14 15 16 17 18 19 20 21 22
000
FTUS42 KJAX 301100
TAFCRG
TAF
KCRG 301120Z 3012/3112 33004KT P6SM FEW015 SCT070
     FM301500 01006KT P6SM FEW060 FEW250
     FM301900 09010KT P6SM VCSH FEW025 SCT060 SCT150
     FM310200 07006KT P6SM FEW070=

USA.gov is the U.S. government's official web portal to all federal, state and local government web resources and services.